sensor_id;sensor_type;location;lat;lon;timestamp;temperature;humidity
4584;DHT22;2304;47.606;12.186;2023-04-24T00:04:17;13.70;76.20
4584;DHT22;2304;47.606;12.186;2023-04-24T00:09:20;13.80;75.80
4584;DHT22;2304;47.606;12.186;2023-04-24T00:14:22;13.70;75.70
4584;DHT22;2304;47.606;12.186;2023-04-24T00:19:23;13.60;75.50
4584;DHT22;2304;47.606;12.186;2023-04-24T00:24:26;13.60;75.30
4584;DHT22;2304;47.606;12.186;2023-04-24T00:29:28;13.60;75.10
4584;DHT22;2304;47.606;12.186;2023-04-24T00:34:30;13.60;75.00
4584;DHT22;2304;47.606;12.186;2023-04-24T00:39:34;13.60;75.10
4584;DHT22;2304;47.606;12.186;2023-04-24T00:44:36;13.60;75.60
4584;DHT22;2304;47.606;12.186;2023-04-24T00:49:38;13.60;76.10
4584;DHT22;2304;47.606;12.186;2023-04-24T00:54:41;13.60;76.50
4584;DHT22;2304;47.606;12.186;2023-04-24T00:59:43;13.60;77.20
4584;DHT22;2304;47.606;12.186;2023-04-24T01:04:45;13.50;76.00
4584;DHT22;2304;47.606;12.186;2023-04-24T01:09:48;13.50;75.80
4584;DHT22;2304;47.606;12.186;2023-04-24T01:14:51;13.50;75.20
4584;DHT22;2304;47.606;12.186;2023-04-24T01:19:53;13.50;75.00
4584;DHT22;2304;47.606;12.186;2023-04-24T01:24:58;13.40;75.00
4584;DHT22;2304;47.606;12.186;2023-04-24T01:30:00;13.40;75.40
4584;DHT22;2304;47.606;12.186;2023-04-24T01:35:02;13.40;75.60
4584;DHT22;2304;47.606;12.186;2023-04-24T01:40:07;13.30;76.50
4584;DHT22;2304;47.606;12.186;2023-04-24T01:45:11;13.20;76.70
4584;DHT22;2304;47.606;12.186;2023-04-24T01:50:13;13.20;76.70
4584;DHT22;2304;47.606;12.186;2023-04-24T01:55:17;13.30;76.10
4584;DHT22;2304;47.606;12.186;2023-04-24T02:00:18;13.20;75.70
4584;DHT22;2304;47.606;12.186;2023-04-24T02:05:20;13.30;75.50
4584;DHT22;2304;47.606;12.186;2023-04-24T02:10:24;13.20;75.60
4584;DHT22;2304;47.606;12.186;2023-04-24T02:15:26;13.20;76.30
4584;DHT22;2304;47.606;12.186;2023-04-24T02:20:28;13.10;76.50
4584;DHT22;2304;47.606;12.186;2023-04-24T02:25:31;12.90;78.40
4584;DHT22;2304;47.606;12.186;2023-04-24T02:30:33;12.70;80.40
4584;DHT22;2304;47.606;12.186;2023-04-24T02:35:35;12.60;80.90
4584;DHT22;2304;47.606;12.186;2023-04-24T02:40:38;12.60;81.60
4584;DHT22;2304;47.606;12.186;2023-04-24T02:45:40;12.60;82.10
4584;DHT22;2304;47.606;12.186;2023-04-24T02:50:42;12.50;82.60
4584;DHT22;2304;47.606;12.186;2023-04-24T02:55:45;12.40;82.90
4584;DHT22;2304;47.606;12.186;2023-04-24T03:00:47;12.40;83.50
4584;DHT22;2304;47.606;12.186;2023-04-24T03:05:49;12.30;84.30
4584;DHT22;2304;47.606;12.186;2023-04-24T03:10:52;12.20;85.30
4584;DHT22;2304;47.606;12.186;2023-04-24T03:15:54;12.20;86.00
4584;DHT22;2304;47.606;12.186;2023-04-24T03:20:56;12.20;86.00
4584;DHT22;2304;47.606;12.186;2023-04-24T03:25:59;12.10;87.20
4584;DHT22;2304;47.606;12.186;2023-04-24T03:31:02;12.00;86.60
4584;DHT22;2304;47.606;12.186;2023-04-24T03:36:04;12.00;87.40
4584;DHT22;2304;47.606;12.186;2023-04-24T03:41:08;11.90;88.70
4584;DHT22;2304;47.606;12.186;2023-04-24T03:46:09;11.90;89.20
4584;DHT22;2304;47.606;12.186;2023-04-24T03:51:11;11.60;88.20
4584;DHT22;2304;47.606;12.186;2023-04-24T03:56:14;11.70;83.30
4584;DHT22;2304;47.606;12.186;2023-04-24T04:01:16;11.70;81.60
4584;DHT22;2304;47.606;12.186;2023-04-24T04:06:19;11.70;84.00
4584;DHT22;2304;47.606;12.186;2023-04-24T04:11:23;11.70;83.20
4584;DHT22;2304;47.606;12.186;2023-04-24T04:16:25;11.60;83.10
4584;DHT22;2304;47.606;12.186;2023-04-24T04:21:27;11.60;81.80
4584;DHT22;2304;47.606;12.186;2023-04-24T04:26:30;11.50;80.70
4584;DHT22;2304;47.606;12.186;2023-04-24T04:31:33;11.50;81.10
4584;DHT22;2304;47.606;12.186;2023-04-24T04:36:34;11.40;81.40
4584;DHT22;2304;47.606;12.186;2023-04-24T04:41:38;11.40;82.20
4584;DHT22;2304;47.606;12.186;2023-04-24T04:46:40;11.40;82.00
4584;DHT22;2304;47.606;12.186;2023-04-24T04:51:42;11.30;81.40
4584;DHT22;2304;47.606;12.186;2023-04-24T04:56:46;11.30;81.70
4584;DHT22;2304;47.606;12.186;2023-04-24T05:01:48;11.30;81.80
4584;DHT22;2304;47.606;12.186;2023-04-24T05:06:50;11.20;82.70
4584;DHT22;2304;47.606;12.186;2023-04-24T05:11:53;11.30;83.00
4584;DHT22;2304;47.606;12.186;2023-04-24T05:16:55;11.20;82.70
4584;DHT22;2304;47.606;12.186;2023-04-24T05:21:57;11.20;83.70
4584;DHT22;2304;47.606;12.186;2023-04-24T05:27:00;11.20;84.50
4584;DHT22;2304;47.606;12.186;2023-04-24T05:32:03;11.10;84.50
4584;DHT22;2304;47.606;12.186;2023-04-24T05:37:05;11.10;85.20
4584;DHT22;2304;47.606;12.186;2023-04-24T05:42:10;11.10;84.40
4584;DHT22;2304;47.606;12.186;2023-04-24T05:47:12;11.20;84.00
4584;DHT22;2304;47.606;12.186;2023-04-24T05:52:14;11.20;82.40
4584;DHT22;2304;47.606;12.186;2023-04-24T05:57:17;11.10;81.30
4584;DHT22;2304;47.606;12.186;2023-04-24T06:02:19;11.10;82.20
4584;DHT22;2304;47.606;12.186;2023-04-24T06:07:20;11.10;82.00
4584;DHT22;2304;47.606;12.186;2023-04-24T06:12:24;11.10;81.60
4584;DHT22;2304;47.606;12.186;2023-04-24T06:17:26;11.10;82.10
4584;DHT22;2304;47.606;12.186;2023-04-24T06:22:28;11.10;81.60
4584;DHT22;2304;47.606;12.186;2023-04-24T06:27:31;11.20;82.50
4584;DHT22;2304;47.606;12.186;2023-04-24T06:32:33;11.20;82.40
4584;DHT22;2304;47.606;12.186;2023-04-24T06:37:35;11.30;82.60
4584;DHT22;2304;47.606;12.186;2023-04-24T06:42:38;11.30;82.10
4584;DHT22;2304;47.606;12.186;2023-04-24T06:47:40;11.30;81.80
4584;DHT22;2304;47.606;12.186;2023-04-24T06:52:42;11.40;80.80
4584;DHT22;2304;47.606;12.186;2023-04-24T06:57:45;11.40;80.40
4584;DHT22;2304;47.606;12.186;2023-04-24T07:02:47;11.20;79.40
4584;DHT22;2304;47.606;12.186;2023-04-24T07:07:49;11.20;80.70
4584;DHT22;2304;47.606;12.186;2023-04-24T07:12:53;11.30;81.50
4584;DHT22;2304;47.606;12.186;2023-04-24T07:17:55;11.30;79.10
4584;DHT22;2304;47.606;12.186;2023-04-24T07:22:56;11.30;77.60
4584;DHT22;2304;47.606;12.186;2023-04-24T07:28:00;11.30;78.40
4584;DHT22;2304;47.606;12.186;2023-04-24T07:33:02;11.20;78.80
4584;DHT22;2304;47.606;12.186;2023-04-24T07:38:03;11.40;80.60
4584;DHT22;2304;47.606;12.186;2023-04-24T07:43:07;11.20;80.60
4584;DHT22;2304;47.606;12.186;2023-04-24T07:48:09;11.30;81.00
4584;DHT22;2304;47.606;12.186;2023-04-24T07:53:11;11.30;80.10
4584;DHT22;2304;47.606;12.186;2023-04-24T07:58:14;11.40;80.70
4584;DHT22;2304;47.606;12.186;2023-04-24T08:03:15;11.50;79.10
4584;DHT22;2304;47.606;12.186;2023-04-24T08:08:22;11.30;77.80
4584;DHT22;2304;47.606;12.186;2023-04-24T08:13:25;11.40;79.40
4584;DHT22;2304;47.606;12.186;2023-04-24T08:18:27;11.30;77.40
4584;DHT22;2304;47.606;12.186;2023-04-24T08:23:29;11.40;78.20
4584;DHT22;2304;47.606;12.186;2023-04-24T08:28:32;11.50;78.90
4584;DHT22;2304;47.606;12.186;2023-04-24T08:33:34;11.50;77.60
4584;DHT22;2304;47.606;12.186;2023-04-24T08:38:36;11.40;77.20
4584;DHT22;2304;47.606;12.186;2023-04-24T08:43:40;11.50;77.70
4584;DHT22;2304;47.606;12.186;2023-04-24T08:48:43;11.50;77.80
4584;DHT22;2304;47.606;12.186;2023-04-24T08:53:45;11.50;78.80
4584;DHT22;2304;47.606;12.186;2023-04-24T08:58:50;11.60;80.20
4584;DHT22;2304;47.606;12.186;2023-04-24T09:03:53;11.50;79.90
4584;DHT22;2304;47.606;12.186;2023-04-24T09:08:57;11.50;79.90
4584;DHT22;2304;47.606;12.186;2023-04-24T09:14:02;11.40;80.40
4584;DHT22;2304;47.606;12.186;2023-04-24T09:19:04;11.60;80.20
4584;DHT22;2304;47.606;12.186;2023-04-24T09:24:14;11.50;80.20
4584;DHT22;2304;47.606;12.186;2023-04-24T09:29:19;11.50;80.70
4584;DHT22;2304;47.606;12.186;2023-04-24T09:34:22;11.50;78.90
4584;DHT22;2304;47.606;12.186;2023-04-24T09:39:24;11.50;79.90
4584;DHT22;2304;47.606;12.186;2023-04-24T09:44:28;11.50;79.40
4584;DHT22;2304;47.606;12.186;2023-04-24T09:49:31;11.50;80.90
4584;DHT22;2304;47.606;12.186;2023-04-24T09:54:33;11.80;80.60
4584;DHT22;2304;47.606;12.186;2023-04-24T09:59:42;12.10;81.60
4584;DHT22;2304;47.606;12.186;2023-04-24T10:04:54;12.40;79.40
4584;DHT22;2304;47.606;12.186;2023-04-24T10:09:57;12.50;76.20
4584;DHT22;2304;47.606;12.186;2023-04-24T10:15:00;12.60;76.20
4584;DHT22;2304;47.606;12.186;2023-04-24T10:20:04;12.70;74.60
4584;DHT22;2304;47.606;12.186;2023-04-24T10:25:07;12.90;77.00
4584;DHT22;2304;47.606;12.186;2023-04-24T10:30:12;13.10;75.70
4584;DHT22;2304;47.606;12.186;2023-04-24T10:35:15;13.20;73.90
4584;DHT22;2304;47.606;12.186;2023-04-24T10:40:26;13.20;72.10
4584;DHT22;2304;47.606;12.186;2023-04-24T10:45:29;13.30;71.50
4584;DHT22;2304;47.606;12.186;2023-04-24T10:50:43;13.40;72.60
4584;DHT22;2304;47.606;12.186;2023-04-24T10:55:46;13.50;70.80
4584;DHT22;2304;47.606;12.186;2023-04-24T11:00:57;13.70;70.80
4584;DHT22;2304;47.606;12.186;2023-04-24T11:06:01;13.90;71.20
4584;DHT22;2304;47.606;12.186;2023-04-24T11:11:09;14.10;70.60
4584;DHT22;2304;47.606;12.186;2023-04-24T11:16:20;14.30;72.50
4584;DHT22;2304;47.606;12.186;2023-04-24T11:21:23;14.70;69.30
4584;DHT22;2304;47.606;12.186;2023-04-24T11:26:25;14.50;67.70
4584;DHT22;2304;47.606;12.186;2023-04-24T11:31:39;14.60;69.10
4584;DHT22;2304;47.606;12.186;2023-04-24T11:36:43;14.60;66.70
4584;DHT22;2304;47.606;12.186;2023-04-24T11:41:46;14.60;65.00
4584;DHT22;2304;47.606;12.186;2023-04-24T11:46:49;14.70;63.30
4584;DHT22;2304;47.606;12.186;2023-04-24T11:51:55;14.80;63.80
4584;DHT22;2304;47.606;12.186;2023-04-24T11:56:57;14.80;63.30
4584;DHT22;2304;47.606;12.186;2023-04-24T12:02:00;14.90;62.60
4584;DHT22;2304;47.606;12.186;2023-04-24T12:07:02;15.00;64.60
4584;DHT22;2304;47.606;12.186;2023-04-24T12:12:06;15.00;63.50
4584;DHT22;2304;47.606;12.186;2023-04-24T12:17:09;14.90;58.30
4584;DHT22;2304;47.606;12.186;2023-04-24T12:22:11;14.90;60.20
4584;DHT22;2304;47.606;12.186;2023-04-24T12:27:19;14.90;61.70
4584;DHT22;2304;47.606;12.186;2023-04-24T12:32:22;14.50;62.80
4584;DHT22;2304;47.606;12.186;2023-04-24T12:37:26;14.40;65.80
4584;DHT22;2304;47.606;12.186;2023-04-24T12:42:34;14.60;65.50
4584;DHT22;2304;47.606;12.186;2023-04-24T12:47:39;14.70;66.10
4584;DHT22;2304;47.606;12.186;2023-04-24T12:52:41;14.50;62.30
4584;DHT22;2304;47.606;12.186;2023-04-24T12:57:43;14.50;62.70
4584;DHT22;2304;47.606;12.186;2023-04-24T13:02:46;14.60;60.90
4584;DHT22;2304;47.606;12.186;2023-04-24T13:07:48;14.70;59.60
4584;DHT22;2304;47.606;12.186;2023-04-24T13:12:50;14.90;59.80
4584;DHT22;2304;47.606;12.186;2023-04-24T13:17:53;15.10;58.80
4584;DHT22;2304;47.606;12.186;2023-04-24T13:22:55;15.20;56.30
4584;DHT22;2304;47.606;12.186;2023-04-24T13:27:57;15.20;56.00
4584;DHT22;2304;47.606;12.186;2023-04-24T13:33:00;15.20;56.20
4584;DHT22;2304;47.606;12.186;2023-04-24T13:38:02;15.20;55.50
4584;DHT22;2304;47.606;12.186;2023-04-24T13:43:06;15.30;54.40
4584;DHT22;2304;47.606;12.186;2023-04-24T13:48:09;15.30;53.80
4584;DHT22;2304;47.606;12.186;2023-04-24T13:53:11;15.40;54.20
4584;DHT22;2304;47.606;12.186;2023-04-24T13:58:13;15.40;54.40
4584;DHT22;2304;47.606;12.186;2023-04-24T14:03:17;15.70;50.40
4584;DHT22;2304;47.606;12.186;2023-04-24T14:08:18;16.10;51.00
4584;DHT22;2304;47.606;12.186;2023-04-24T14:13:20;16.30;49.70
4584;DHT22;2304;47.606;12.186;2023-04-24T14:18:24;16.20;48.50
4584;DHT22;2304;47.606;12.186;2023-04-24T14:23:27;15.90;48.50
4584;DHT22;2304;47.606;12.186;2023-04-24T14:28:29;15.80;48.50
4584;DHT22;2304;47.606;12.186;2023-04-24T14:33:32;15.70;48.30
4584;DHT22;2304;47.606;12.186;2023-04-24T14:38:34;15.80;49.70
4584;DHT22;2304;47.606;12.186;2023-04-24T14:43:36;16.10;48.20
4584;DHT22;2304;47.606;12.186;2023-04-24T14:48:39;16.20;47.50
4584;DHT22;2304;47.606;12.186;2023-04-24T14:53:41;16.70;50.10
4584;DHT22;2304;47.606;12.186;2023-04-24T14:58:43;16.50;46.70
4584;DHT22;2304;47.606;12.186;2023-04-24T15:03:46;16.30;45.70
4584;DHT22;2304;47.606;12.186;2023-04-24T15:08:48;16.80;46.10
4584;DHT22;2304;47.606;12.186;2023-04-24T15:13:50;16.80;46.40
4584;DHT22;2304;47.606;12.186;2023-04-24T15:18:53;16.50;44.80
4584;DHT22;2304;47.606;12.186;2023-04-24T15:23:57;16.50;45.60
4584;DHT22;2304;47.606;12.186;2023-04-24T15:28:58;16.30;42.80
4584;DHT22;2304;47.606;12.186;2023-04-24T15:34:02;16.10;43.10
4584;DHT22;2304;47.606;12.186;2023-04-24T15:39:03;16.00;43.50
4584;DHT22;2304;47.606;12.186;2023-04-24T15:44:05;15.90;43.30
4584;DHT22;2304;47.606;12.186;2023-04-24T15:49:08;15.90;44.80
4584;DHT22;2304;47.606;12.186;2023-04-24T15:54:10;15.80;44.00
4584;DHT22;2304;47.606;12.186;2023-04-24T15:59:12;15.50;43.20
4584;DHT22;2304;47.606;12.186;2023-04-24T16:04:15;15.50;42.50
4584;DHT22;2304;47.606;12.186;2023-04-24T16:09:17;15.50;43.20
4584;DHT22;2304;47.606;12.186;2023-04-24T16:14:19;15.30;42.70
4584;DHT22;2304;47.606;12.186;2023-04-24T16:19:22;15.40;44.30
4584;DHT22;2304;47.606;12.186;2023-04-24T16:24:24;15.20;43.70
4584;DHT22;2304;47.606;12.186;2023-04-24T16:29:29;15.30;43.90
4584;DHT22;2304;47.606;12.186;2023-04-24T16:34:32;15.30;42.90
4584;DHT22;2304;47.606;12.186;2023-04-24T16:39:34;15.40;43.40
4584;DHT22;2304;47.606;12.186;2023-04-24T16:44:38;15.30;41.90
4584;DHT22;2304;47.606;12.186;2023-04-24T16:49:41;15.20;41.50
4584;DHT22;2304;47.606;12.186;2023-04-24T16:54:43;15.40;43.20
4584;DHT22;2304;47.606;12.186;2023-04-24T16:59:44;15.00;45.30
4584;DHT22;2304;47.606;12.186;2023-04-24T17:04:48;14.80;45.70
4584;DHT22;2304;47.606;12.186;2023-04-24T17:09:49;14.50;48.20
4584;DHT22;2304;47.606;12.186;2023-04-24T17:14:51;14.30;49.20
4584;DHT22;2304;47.606;12.186;2023-04-24T17:19:54;14.00;53.40
4584;DHT22;2304;47.606;12.186;2023-04-24T17:24:56;13.90;55.00
4584;DHT22;2304;47.606;12.186;2023-04-24T17:29:58;13.70;54.80
4584;DHT22;2304;47.606;12.186;2023-04-24T17:35:01;13.50;57.20
4584;DHT22;2304;47.606;12.186;2023-04-24T17:40:04;13.50;57.30
4584;DHT22;2304;47.606;12.186;2023-04-24T17:45:07;13.50;54.50
4584;DHT22;2304;47.606;12.186;2023-04-24T17:50:11;13.30;54.60
4584;DHT22;2304;47.606;12.186;2023-04-24T17:55:13;13.30;56.00
4584;DHT22;2304;47.606;12.186;2023-04-24T18:00:16;13.20;55.60
4584;DHT22;2304;47.606;12.186;2023-04-24T18:05:19;13.20;54.30
4584;DHT22;2304;47.606;12.186;2023-04-24T18:10:21;13.00;54.90
4584;DHT22;2304;47.606;12.186;2023-04-24T18:15:24;13.00;55.80
4584;DHT22;2304;47.606;12.186;2023-04-24T18:20:27;12.90;56.50
4584;DHT22;2304;47.606;12.186;2023-04-24T18:25:29;12.90;56.60
4584;DHT22;2304;47.606;12.186;2023-04-24T18:30:31;12.80;55.40
4584;DHT22;2304;47.606;12.186;2023-04-24T18:35:35;12.80;55.50
4584;DHT22;2304;47.606;12.186;2023-04-24T18:40:38;12.70;56.20
4584;DHT22;2304;47.606;12.186;2023-04-24T18:45:40;12.60;56.00
4584;DHT22;2304;47.606;12.186;2023-04-24T18:50:43;12.60;56.50
4584;DHT22;2304;47.606;12.186;2023-04-24T18:55:45;12.50;58.50
4584;DHT22;2304;47.606;12.186;2023-04-24T19:00:46;12.50;58.60
4584;DHT22;2304;47.606;12.186;2023-04-24T19:05:49;11.90;59.70
4584;DHT22;2304;47.606;12.186;2023-04-24T19:10:51;11.70;61.10
4584;DHT22;2304;47.606;12.186;2023-04-24T19:15:53;11.90;61.10
4584;DHT22;2304;47.606;12.186;2023-04-24T19:20:56;12.00;60.30
4584;DHT22;2304;47.606;12.186;2023-04-24T19:25:59;12.10;59.60
4584;DHT22;2304;47.606;12.186;2023-04-24T19:31:00;12.10;59.70
4584;DHT22;2304;47.606;12.186;2023-04-24T19:36:04;12.00;60.40
4584;DHT22;2304;47.606;12.186;2023-04-24T19:41:06;11.80;60.90
4584;DHT22;2304;47.606;12.186;2023-04-24T19:46:08;11.70;61.10
4584;DHT22;2304;47.606;12.186;2023-04-24T19:51:11;11.60;61.20
4584;DHT22;2304;47.606;12.186;2023-04-24T19:56:13;11.70;62.00
4584;DHT22;2304;47.606;12.186;2023-04-24T20:01:15;11.70;61.70
4584;DHT22;2304;47.606;12.186;2023-04-24T20:06:18;11.80;62.70
4584;DHT22;2304;47.606;12.186;2023-04-24T20:11:20;11.50;63.20
4584;DHT22;2304;47.606;12.186;2023-04-24T20:16:22;11.60;63.00
4584;DHT22;2304;47.606;12.186;2023-04-24T20:21:25;11.50;63.10
4584;DHT22;2304;47.606;12.186;2023-04-24T20:26:27;11.30;65.20
4584;DHT22;2304;47.606;12.186;2023-04-24T20:31:29;11.40;67.20
4584;DHT22;2304;47.606;12.186;2023-04-24T20:36:32;11.20;67.10
4584;DHT22;2304;47.606;12.186;2023-04-24T20:41:34;11.30;68.00
4584;DHT22;2304;47.606;12.186;2023-04-24T20:46:36;11.30;68.00
4584;DHT22;2304;47.606;12.186;2023-04-24T20:51:39;11.30;68.40
4584;DHT22;2304;47.606;12.186;2023-04-24T20:56:41;11.30;68.10
4584;DHT22;2304;47.606;12.186;2023-04-24T21:01:43;11.20;69.00
4584;DHT22;2304;47.606;12.186;2023-04-24T21:06:47;11.20;69.60
4584;DHT22;2304;47.606;12.186;2023-04-24T21:11:49;11.20;69.00
4584;DHT22;2304;47.606;12.186;2023-04-24T21:16:51;11.10;68.30
4584;DHT22;2304;47.606;12.186;2023-04-24T21:21:57;11.10;68.30
4584;DHT22;2304;47.606;12.186;2023-04-24T21:26:59;11.00;68.00
4584;DHT22;2304;47.606;12.186;2023-04-24T21:32:01;10.90;68.60
4584;DHT22;2304;47.606;12.186;2023-04-24T21:37:04;10.80;68.60
4584;DHT22;2304;47.606;12.186;2023-04-24T21:42:07;10.70;68.80
4584;DHT22;2304;47.606;12.186;2023-04-24T21:47:09;10.70;68.20
4584;DHT22;2304;47.606;12.186;2023-04-24T21:52:12;10.70;68.20
4584;DHT22;2304;47.606;12.186;2023-04-24T21:57:14;10.60;67.90
4584;DHT22;2304;47.606;12.186;2023-04-24T22:02:16;10.60;67.70
4584;DHT22;2304;47.606;12.186;2023-04-24T22:07:19;10.60;68.00
4584;DHT22;2304;47.606;12.186;2023-04-24T22:12:21;10.60;68.00
4584;DHT22;2304;47.606;12.186;2023-04-24T22:17:23;10.50;68.20
4584;DHT22;2304;47.606;12.186;2023-04-24T22:22:26;10.60;68.60
4584;DHT22;2304;47.606;12.186;2023-04-24T22:27:28;10.30;68.40
4584;DHT22;2304;47.606;12.186;2023-04-24T22:32:30;10.30;68.20
4584;DHT22;2304;47.606;12.186;2023-04-24T22:37:33;10.50;69.00
4584;DHT22;2304;47.606;12.186;2023-04-24T22:42:36;10.20;69.00
4584;DHT22;2304;47.606;12.186;2023-04-24T22:47:38;10.10;69.20
4584;DHT22;2304;47.606;12.186;2023-04-24T22:52:41;10.20;69.60
4584;DHT22;2304;47.606;12.186;2023-04-24T22:57:43;10.10;69.30
4584;DHT22;2304;47.606;12.186;2023-04-24T23:02:45;10.20;68.80
4584;DHT22;2304;47.606;12.186;2023-04-24T23:07:48;10.10;69.40
4584;DHT22;2304;47.606;12.186;2023-04-24T23:12:50;10.10;69.90
4584;DHT22;2304;47.606;12.186;2023-04-24T23:17:51;10.10;70.00
4584;DHT22;2304;47.606;12.186;2023-04-24T23:22:55;10.10;69.20
4584;DHT22;2304;47.606;12.186;2023-04-24T23:27:57;10.10;69.60
4584;DHT22;2304;47.606;12.186;2023-04-24T23:32:59;10.10;69.20
4584;DHT22;2304;47.606;12.186;2023-04-24T23:38:03;10.10;69.30
4584;DHT22;2304;47.606;12.186;2023-04-24T23:43:05;10.10;69.30
4584;DHT22;2304;47.606;12.186;2023-04-24T23:48:07;10.10;69.40
4584;DHT22;2304;47.606;12.186;2023-04-24T23:53:10;10.10;70.10
4584;DHT22;2304;47.606;12.186;2023-04-24T23:58:12;10.00;70.30
